sensor_id;sensor_type;location;lat;lon;timestamp;P1;durP1;ratioP1;P2;durP2;ratioP2
24389;SDS011;12510;56.468;-3.004;2023-07-30T00:02:25;11.15;;;10.48;;
24389;SDS011;12510;56.468;-3.004;2023-07-30T00:04:51;9.80;;;9.15;;
24389;SDS011;12510;56.468;-3.004;2023-07-30T00:07:18;14.85;;;13.88;;
24389;SDS011;12510;56.468;-3.004;2023-07-30T00:09:44;8.77;;;8.15;;
24389;SDS011;12510;56.468;-3.004;2023-07-30T00:12:11;10.85;;;10.05;;
24389;SDS011;12510;56.468;-3.004;2023-07-30T00:14:37;9.23;;;8.52;;
24389;SDS011;12510;56.468;-3.004;2023-07-30T00:17:04;8.60;;;7.90;;
24389;SDS011;12510;56.468;-3.004;2023-07-30T00:19:30;14.10;;;13.20;;
24389;SDS011;12510;56.468;-3.004;2023-07-30T00:21:57;9.98;;;9.32;;
24389;SDS011;12510;56.468;-3.004;2023-07-30T00:24:23;10.98;;;10.25;;
24389;SDS011;12510;56.468;-3.004;2023-07-30T00:26:50;14.25;;;13.30;;
24389;SDS011;12510;56.468;-3.004;2023-07-30T00:29:16;6.68;;;6.10;;
24389;SDS011;12510;56.468;-3.004;2023-07-30T00:31:44;10.27;;;9.43;;
24389;SDS011;12510;56.468;-3.004;2023-07-30T00:34:11;6.65;;;6.03;;
24389;SDS011;12510;56.468;-3.004;2023-07-30T00:36:37;10.65;;;9.90;;
24389;SDS011;12510;56.468;-3.004;2023-07-30T00:39:03;8.65;;;7.95;;
24389;SDS011;12510;56.468;-3.004;2023-07-30T00:41:30;11.63;;;10.85;;
24389;SDS011;12510;56.468;-3.004;2023-07-30T00:43:57;9.57;;;8.88;;
24389;SDS011;12510;56.468;-3.004;2023-07-30T00:46:23;7.68;;;7.10;;
24389;SDS011;12510;56.468;-3.004;2023-07-30T00:48:50;6.90;;;6.30;;
24389;SDS011;12510;56.468;-3.004;2023-07-30T00:51:17;6.85;;;6.30;;
24389;SDS011;12510;56.468;-3.004;2023-07-30T00:53:45;6.47;;;5.97;;
24389;SDS011;12510;56.468;-3.004;2023-07-30T00:56:11;8.95;;;8.27;;
24389;SDS011;12510;56.468;-3.004;2023-07-30T00:58:38;6.82;;;6.40;;
24389;SDS011;12510;56.468;-3.004;2023-07-30T01:01:05;10.07;;;9.38;;
24389;SDS011;12510;56.468;-3.004;2023-07-30T01:03:32;33.85;;;31.77;;
24389;SDS011;12510;56.468;-3.004;2023-07-30T01:05:58;8.55;;;7.85;;
24389;SDS011;12510;56.468;-3.004;2023-07-30T01:08:25;58.42;;;54.03;;
24389;SDS011;12510;56.468;-3.004;2023-07-30T01:10:52;7.32;;;6.78;;
24389;SDS011;12510;56.468;-3.004;2023-07-30T01:13:19;12.45;;;11.70;;
24389;SDS011;12510;56.468;-3.004;2023-07-30T01:15:46;19.58;;;18.27;;
24389;SDS011;12510;56.468;-3.004;2023-07-30T01:18:13;19.13;;;17.73;;
24389;SDS011;12510;56.468;-3.004;2023-07-30T01:20:39;11.35;;;10.60;;
24389;SDS011;12510;56.468;-3.004;2023-07-30T01:23:06;10.48;;;9.77;;
24389;SDS011;12510;56.468;-3.004;2023-07-30T01:25:33;9.10;;;8.55;;
24389;SDS011;12510;56.468;-3.004;2023-07-30T01:28:02;9.30;;;8.68;;
24389;SDS011;12510;56.468;-3.004;2023-07-30T01:30:33;6.82;;;6.10;;
24389;SDS011;12510;56.468;-3.004;2023-07-30T01:33:06;7.28;;;6.60;;
24389;SDS011;12510;56.468;-3.004;2023-07-30T01:35:35;7.50;;;6.97;;
24389;SDS011;12510;56.468;-3.004;2023-07-30T01:38:04;7.80;;;7.28;;
24389;SDS011;12510;56.468;-3.004;2023-07-30T01:40:32;10.07;;;9.38;;
24389;SDS011;12510;56.468;-3.004;2023-07-30T01:42:59;11.52;;;10.73;;
24389;SDS011;12510;56.468;-3.004;2023-07-30T01:45:25;7.50;;;7.05;;
24389;SDS011;12510;56.468;-3.004;2023-07-30T01:47:52;18.10;;;16.92;;
24389;SDS011;12510;56.468;-3.004;2023-07-30T01:50:18;8.95;;;8.20;;
24389;SDS011;12510;56.468;-3.004;2023-07-30T01:52:45;13.88;;;12.98;;
24389;SDS011;12510;56.468;-3.004;2023-07-30T01:55:11;8.10;;;7.50;;
24389;SDS011;12510;56.468;-3.004;2023-07-30T01:57:38;15.93;;;14.80;;
24389;SDS011;12510;56.468;-3.004;2023-07-30T02:00:05;8.55;;;7.88;;
24389;SDS011;12510;56.468;-3.004;2023-07-30T02:02:32;31.33;;;29.15;;
24389;SDS011;12510;56.468;-3.004;2023-07-30T02:05:01;22.40;;;21.00;;
24389;SDS011;12510;56.468;-3.004;2023-07-30T02:07:28;10.52;;;9.80;;
24389;SDS011;12510;56.468;-3.004;2023-07-30T02:09:55;9.00;;;8.30;;
24389;SDS011;12510;56.468;-3.004;2023-07-30T02:12:22;7.55;;;7.05;;
24389;SDS011;12510;56.468;-3.004;2023-07-30T02:14:49;7.38;;;6.88;;
24389;SDS011;12510;56.468;-3.004;2023-07-30T02:17:15;7.20;;;6.63;;
24389;SDS011;12510;56.468;-3.004;2023-07-30T02:19:42;19.95;;;18.65;;
24389;SDS011;12510;56.468;-3.004;2023-07-30T02:22:08;15.63;;;14.50;;
24389;SDS011;12510;56.468;-3.004;2023-07-30T02:24:35;10.40;;;9.55;;
24389;SDS011;12510;56.468;-3.004;2023-07-30T02:27:01;16.73;;;15.63;;
24389;SDS011;12510;56.468;-3.004;2023-07-30T02:29:28;11.90;;;11.00;;
24389;SDS011;12510;56.468;-3.004;2023-07-30T02:31:54;7.43;;;6.82;;
24389;SDS011;12510;56.468;-3.004;2023-07-30T02:34:21;14.10;;;13.18;;
24389;SDS011;12510;56.468;-3.004;2023-07-30T02:36:48;12.18;;;11.32;;
24389;SDS011;12510;56.468;-3.004;2023-07-30T02:39:15;10.43;;;9.75;;
24389;SDS011;12510;56.468;-3.004;2023-07-30T02:41:41;71.50;;;65.10;;
24389;SDS011;12510;56.468;-3.004;2023-07-30T02:44:08;19.50;;;18.23;;
24389;SDS011;12510;56.468;-3.004;2023-07-30T02:46:34;11.38;;;10.52;;
24389;SDS011;12510;56.468;-3.004;2023-07-30T02:49:01;12.40;;;11.57;;
24389;SDS011;12510;56.468;-3.004;2023-07-30T02:51:27;11.93;;;11.10;;
24389;SDS011;12510;56.468;-3.004;2023-07-30T02:53:57;9.10;;;7.82;;
24389;SDS011;12510;56.468;-3.004;2023-07-30T02:56:25;6.18;;;5.72;;
24389;SDS011;12510;56.468;-3.004;2023-07-30T02:58:51;9.82;;;9.10;;
24389;SDS011;12510;56.468;-3.004;2023-07-30T03:01:18;15.27;;;14.27;;
24389;SDS011;12510;56.468;-3.004;2023-07-30T03:03:45;8.70;;;8.07;;
24389;SDS011;12510;56.468;-3.004;2023-07-30T03:06:12;14.18;;;13.07;;
24389;SDS011;12510;56.468;-3.004;2023-07-30T03:08:38;22.45;;;20.77;;
24389;SDS011;12510;56.468;-3.004;2023-07-30T03:11:04;8.13;;;7.25;;
24389;SDS011;12510;56.468;-3.004;2023-07-30T03:13:31;9.57;;;8.80;;
24389;SDS011;12510;56.468;-3.004;2023-07-30T03:15:57;8.45;;;7.82;;
24389;SDS011;12510;56.468;-3.004;2023-07-30T03:18:24;15.35;;;14.32;;
24389;SDS011;12510;56.468;-3.004;2023-07-30T03:20:50;14.30;;;13.25;;
24389;SDS011;12510;56.468;-3.004;2023-07-30T03:23:17;8.63;;;8.02;;
24389;SDS011;12510;56.468;-3.004;2023-07-30T03:25:43;9.50;;;8.90;;
24389;SDS011;12510;56.468;-3.004;2023-07-30T03:28:10;22.00;;;20.42;;
24389;SDS011;12510;56.468;-3.004;2023-07-30T03:30:37;24.98;;;23.38;;
24389;SDS011;12510;56.468;-3.004;2023-07-30T03:33:05;11.93;;;11.20;;
24389;SDS011;12510;56.468;-3.004;2023-07-30T03:35:31;21.42;;;19.92;;
24389;SDS011;12510;56.468;-3.004;2023-07-30T03:37:58;10.07;;;9.38;;
24389;SDS011;12510;56.468;-3.004;2023-07-30T03:40:24;11.38;;;10.55;;
24389;SDS011;12510;56.468;-3.004;2023-07-30T03:42:52;24.27;;;22.63;;
24389;SDS011;12510;56.468;-3.004;2023-07-30T03:45:21;7.78;;;7.18;;
24389;SDS011;12510;56.468;-3.004;2023-07-30T03:47:47;13.77;;;12.90;;
24389;SDS011;12510;56.468;-3.004;2023-07-30T03:50:14;19.48;;;18.27;;
24389;SDS011;12510;56.468;-3.004;2023-07-30T03:52:40;8.52;;;7.93;;
24389;SDS011;12510;56.468;-3.004;2023-07-30T03:55:07;24.27;;;22.77;;
24389;SDS011;12510;56.468;-3.004;2023-07-30T03:57:34;56.15;;;41.83;;
24389;SDS011;12510;56.468;-3.004;2023-07-30T04:00:02;22.45;;;21.05;;
24389;SDS011;12510;56.468;-3.004;2023-07-30T04:02:40;26.52;;;24.73;;
24389;SDS011;12510;56.468;-3.004;2023-07-30T04:05:06;92.80;;;85.25;;
24389;SDS011;12510;56.468;-3.004;2023-07-30T04:07:33;23.48;;;21.83;;
24389;SDS011;12510;56.468;-3.004;2023-07-30T04:09:59;11.65;;;10.82;;
24389;SDS011;12510;56.468;-3.004;2023-07-30T04:12:26;14.88;;;13.85;;
24389;SDS011;12510;56.468;-3.004;2023-07-30T04:14:52;11.43;;;10.57;;
24389;SDS011;12510;56.468;-3.004;2023-07-30T04:17:19;22.40;;;20.85;;
24389;SDS011;12510;56.468;-3.004;2023-07-30T04:19:48;29.45;;;27.58;;
24389;SDS011;12510;56.468;-3.004;2023-07-30T04:22:14;23.98;;;22.27;;
24389;SDS011;12510;56.468;-3.004;2023-07-30T04:24:41;15.07;;;13.90;;
24389;SDS011;12510;56.468;-3.004;2023-07-30T04:27:07;12.73;;;11.70;;
24389;SDS011;12510;56.468;-3.004;2023-07-30T04:29:34;25.85;;;24.13;;
24389;SDS011;12510;56.468;-3.004;2023-07-30T04:32:01;11.95;;;11.15;;
24389;SDS011;12510;56.468;-3.004;2023-07-30T04:34:27;18.67;;;17.17;;
24389;SDS011;12510;56.468;-3.004;2023-07-30T04:36:54;16.35;;;15.35;;
24389;SDS011;12510;56.468;-3.004;2023-07-30T04:39:21;20.85;;;19.55;;
24389;SDS011;12510;56.468;-3.004;2023-07-30T04:41:48;21.73;;;20.25;;
24389;SDS011;12510;56.468;-3.004;2023-07-30T04:44:15;18.17;;;16.88;;
24389;SDS011;12510;56.468;-3.004;2023-07-30T04:46:41;16.55;;;15.35;;
24389;SDS011;12510;56.468;-3.004;2023-07-30T04:49:08;9.35;;;8.75;;
24389;SDS011;12510;56.468;-3.004;2023-07-30T04:51:34;21.83;;;20.55;;
24389;SDS011;12510;56.468;-3.004;2023-07-30T04:54:00;14.80;;;13.98;;
24389;SDS011;12510;56.468;-3.004;2023-07-30T04:56:27;17.90;;;16.70;;
24389;SDS011;12510;56.468;-3.004;2023-07-30T04:58:53;14.73;;;13.90;;
24389;SDS011;12510;56.468;-3.004;2023-07-30T05:01:20;20.27;;;18.90;;
24389;SDS011;12510;56.468;-3.004;2023-07-30T05:03:47;14.55;;;13.70;;
24389;SDS011;12510;56.468;-3.004;2023-07-30T05:06:13;10.13;;;9.50;;
24389;SDS011;12510;56.468;-3.004;2023-07-30T05:08:40;11.93;;;11.10;;
24389;SDS011;12510;56.468;-3.004;2023-07-30T05:11:06;15.63;;;14.63;;
24389;SDS011;12510;56.468;-3.004;2023-07-30T05:13:32;11.57;;;10.77;;
24389;SDS011;12510;56.468;-3.004;2023-07-30T05:15:59;11.57;;;10.85;;
24389;SDS011;12510;56.468;-3.004;2023-07-30T05:18:25;15.40;;;14.45;;
24389;SDS011;12510;56.468;-3.004;2023-07-30T05:20:52;14.27;;;13.38;;
24389;SDS011;12510;56.468;-3.004;2023-07-30T05:23:19;8.13;;;7.63;;
24389;SDS011;12510;56.468;-3.004;2023-07-30T05:25:46;11.55;;;10.80;;
24389;SDS011;12510;56.468;-3.004;2023-07-30T05:28:12;9.68;;;9.07;;
24389;SDS011;12510;56.468;-3.004;2023-07-30T05:30:39;154.52;;;92.75;;
24389;SDS011;12510;56.468;-3.004;2023-07-30T05:33:05;63.65;;;52.53;;
24389;SDS011;12510;56.468;-3.004;2023-07-30T05:35:32;59.72;;;54.97;;
24389;SDS011;12510;56.468;-3.004;2023-07-30T05:37:59;45.40;;;41.45;;
24389;SDS011;12510;56.468;-3.004;2023-07-30T05:40:25;30.30;;;28.25;;
24389;SDS011;12510;56.468;-3.004;2023-07-30T05:42:52;47.42;;;43.00;;
24389;SDS011;12510;56.468;-3.004;2023-07-30T05:45:18;204.50;;;152.13;;
24389;SDS011;12510;56.468;-3.004;2023-07-30T05:47:45;55.40;;;49.90;;
24389;SDS011;12510;56.468;-3.004;2023-07-30T05:50:11;70.03;;;64.07;;
24389;SDS011;12510;56.468;-3.004;2023-07-30T05:52:37;71.25;;;58.50;;
24389;SDS011;12510;56.468;-3.004;2023-07-30T05:55:04;596.30;;;276.40;;
24389;SDS011;12510;56.468;-3.004;2023-07-30T05:57:31;105.45;;;66.20;;
24389;SDS011;12510;56.468;-3.004;2023-07-30T05:59:57;62.17;;;56.75;;
24389;SDS011;12510;56.468;-3.004;2023-07-30T06:02:24;56.97;;;49.88;;
24389;SDS011;12510;56.468;-3.004;2023-07-30T06:04:50;40.47;;;36.25;;
24389;SDS011;12510;56.468;-3.004;2023-07-30T06:10:20;39.00;;;33.90;;
24389;SDS011;12510;56.468;-3.004;2023-07-30T06:12:46;30.00;;;28.17;;
24389;SDS011;12510;56.468;-3.004;2023-07-30T06:15:13;47.83;;;43.10;;
24389;SDS011;12510;56.468;-3.004;2023-07-30T06:17:39;30.77;;;28.83;;
24389;SDS011;12510;56.468;-3.004;2023-07-30T06:20:06;102.43;;;70.40;;
24389;SDS011;12510;56.468;-3.004;2023-07-30T06:22:33;96.45;;;76.68;;
24389;SDS011;12510;56.468;-3.004;2023-07-30T06:24:59;41.80;;;39.08;;
24389;SDS011;12510;56.468;-3.004;2023-07-30T06:27:25;43.83;;;40.30;;
24389;SDS011;12510;56.468;-3.004;2023-07-30T06:29:52;57.35;;;45.50;;
24389;SDS011;12510;56.468;-3.004;2023-07-30T06:32:18;49.88;;;44.58;;
24389;SDS011;12510;56.468;-3.004;2023-07-30T06:34:45;79.13;;;60.67;;
24389;SDS011;12510;56.468;-3.004;2023-07-30T06:37:11;74.82;;;65.28;;
24389;SDS011;12510;56.468;-3.004;2023-07-30T06:39:38;85.47;;;73.38;;
24389;SDS011;12510;56.468;-3.004;2023-07-30T06:42:04;64.25;;;58.75;;
24389;SDS011;12510;56.468;-3.004;2023-07-30T06:44:31;242.77;;;144.88;;
24389;SDS011;12510;56.468;-3.004;2023-07-30T06:46:57;118.32;;;107.20;;
24389;SDS011;12510;56.468;-3.004;2023-07-30T06:49:24;87.38;;;80.00;;
24389;SDS011;12510;56.468;-3.004;2023-07-30T06:51:50;84.95;;;73.50;;
24389;SDS011;12510;56.468;-3.004;2023-07-30T06:54:17;82.35;;;71.70;;
24389;SDS011;12510;56.468;-3.004;2023-07-30T06:56:43;34.38;;;31.83;;
24389;SDS011;12510;56.468;-3.004;2023-07-30T06:59:09;127.05;;;115.18;;
24389;SDS011;12510;56.468;-3.004;2023-07-30T07:01:36;140.35;;;126.80;;
24389;SDS011;12510;56.468;-3.004;2023-07-30T07:04:02;65.90;;;60.92;;
24389;SDS011;12510;56.468;-3.004;2023-07-30T07:06:29;50.42;;;46.33;;
24389;SDS011;12510;56.468;-3.004;2023-07-30T07:08:55;155.45;;;137.52;;
24389;SDS011;12510;56.468;-3.004;2023-07-30T07:11:22;85.75;;;77.28;;
24389;SDS011;12510;56.468;-3.004;2023-07-30T07:13:48;90.95;;;77.57;;
24389;SDS011;12510;56.468;-3.004;2023-07-30T07:16:14;66.03;;;56.08;;
24389;SDS011;12510;56.468;-3.004;2023-07-30T07:18:41;39.03;;;36.55;;
24389;SDS011;12510;56.468;-3.004;2023-07-30T07:21:07;576.30;;;247.48;;
24389;SDS011;12510;56.468;-3.004;2023-07-30T07:23:34;47.33;;;44.03;;
24389;SDS011;12510;56.468;-3.004;2023-07-30T07:26:00;28.65;;;26.73;;
24389;SDS011;12510;56.468;-3.004;2023-07-30T07:28:27;48.88;;;45.45;;
24389;SDS011;12510;56.468;-3.004;2023-07-30T07:30:54;30.10;;;28.17;;
24389;SDS011;12510;56.468;-3.004;2023-07-30T07:33:21;33.92;;;31.77;;
24389;SDS011;12510;56.468;-3.004;2023-07-30T07:35:48;55.58;;;49.95;;
24389;SDS011;12510;56.468;-3.004;2023-07-30T07:38:14;75.32;;;70.03;;
24389;SDS011;12510;56.468;-3.004;2023-07-30T07:40:41;55.95;;;52.28;;
24389;SDS011;12510;56.468;-3.004;2023-07-30T07:43:07;22.58;;;21.33;;
24389;SDS011;12510;56.468;-3.004;2023-07-30T07:45:34;53.22;;;48.92;;
24389;SDS011;12510;56.468;-3.004;2023-07-30T07:48:01;40.85;;;38.15;;
24389;SDS011;12510;56.468;-3.004;2023-07-30T07:50:27;64.20;;;58.92;;
24389;SDS011;12510;56.468;-3.004;2023-07-30T07:52:54;51.33;;;47.78;;
24389;SDS011;12510;56.468;-3.004;2023-07-30T07:55:20;41.72;;;39.17;;
24389;SDS011;12510;56.468;-3.004;2023-07-30T07:57:46;71.53;;;64.72;;
24389;SDS011;12510;56.468;-3.004;2023-07-30T08:00:13;101.30;;;89.55;;
24389;SDS011;12510;56.468;-3.004;2023-07-30T08:02:41;83.82;;;71.53;;
24389;SDS011;12510;56.468;-3.004;2023-07-30T08:05:07;133.88;;;114.55;;
24389;SDS011;12510;56.468;-3.004;2023-07-30T08:07:34;96.95;;;88.65;;
24389;SDS011;12510;56.468;-3.004;2023-07-30T08:10:00;146.55;;;130.75;;
24389;SDS011;12510;56.468;-3.004;2023-07-30T08:12:27;541.05;;;230.65;;
24389;SDS011;12510;56.468;-3.004;2023-07-30T08:14:53;153.68;;;118.10;;
24389;SDS011;12510;56.468;-3.004;2023-07-30T08:17:22;123.18;;;112.18;;
24389;SDS011;12510;56.468;-3.004;2023-07-30T08:19:48;116.82;;;103.78;;
24389;SDS011;12510;56.468;-3.004;2023-07-30T08:22:14;208.43;;;179.18;;
24389;SDS011;12510;56.468;-3.004;2023-07-30T08:24:41;143.27;;;122.95;;
24389;SDS011;12510;56.468;-3.004;2023-07-30T08:27:07;125.32;;;113.70;;
24389;SDS011;12510;56.468;-3.004;2023-07-30T08:29:34;57.38;;;53.58;;
24389;SDS011;12510;56.468;-3.004;2023-07-30T08:32:00;102.40;;;94.13;;
24389;SDS011;12510;56.468;-3.004;2023-07-30T08:34:27;101.18;;;92.53;;
24389;SDS011;12510;56.468;-3.004;2023-07-30T08:36:53;204.55;;;174.23;;
24389;SDS011;12510;56.468;-3.004;2023-07-30T08:39:20;332.63;;;253.90;;
24389;SDS011;12510;56.468;-3.004;2023-07-30T08:41:46;888.38;;;449.98;;
24389;SDS011;12510;56.468;-3.004;2023-07-30T08:44:13;1302.75;;;574.42;;
24389;SDS011;12510;56.468;-3.004;2023-07-30T08:46:40;1123.68;;;489.95;;
24389;SDS011;12510;56.468;-3.004;2023-07-30T08:49:06;1999.90;;;753.78;;
24389;SDS011;12510;56.468;-3.004;2023-07-30T08:51:33;1999.90;;;755.25;;
24389;SDS011;12510;56.468;-3.004;2023-07-30T08:54:03;1757.60;;;432.75;;
24389;SDS011;12510;56.468;-3.004;2023-07-30T08:56:30;392.50;;;167.25;;
24389;SDS011;12510;56.468;-3.004;2023-07-30T08:58:58;1999.90;;;827.13;;
24389;SDS011;12510;56.468;-3.004;2023-07-30T09:01:29;1999.90;;;797.25;;
24389;SDS011;12510;56.468;-3.004;2023-07-30T09:04:00;1999.90;;;999.90;;
24389;SDS011;12510;56.468;-3.004;2023-07-30T09:06:28;1999.90;;;999.90;;
24389;SDS011;12510;56.468;-3.004;2023-07-30T09:08:54;602.30;;;173.48;;
24389;SDS011;12510;56.468;-3.004;2023-07-30T09:11:21;1992.00;;;597.78;;
24389;SDS011;12510;56.468;-3.004;2023-07-30T09:13:53;400.27;;;145.23;;
24389;SDS011;12510;56.468;-3.004;2023-07-30T09:16:24;32.92;;;30.80;;
24389;SDS011;12510;56.468;-3.004;2023-07-30T09:18:52;1999.90;;;833.87;;
24389;SDS011;12510;56.468;-3.004;2023-07-30T09:21:32;1.17;;;0.68;;
24389;SDS011;12510;56.468;-3.004;2023-07-30T09:24:03;1.75;;;0.75;;
24389;SDS011;12510;56.468;-3.004;2023-07-30T09:26:47;2.13;;;0.85;;
24389;SDS011;12510;56.468;-3.004;2023-07-30T09:29:14;1.02;;;0.80;;
24389;SDS011;12510;56.468;-3.004;2023-07-30T09:31:47;1.90;;;0.98;;
24389;SDS011;12510;56.468;-3.004;2023-07-30T09:34:17;1.42;;;0.82;;
24389;SDS011;12510;56.468;-3.004;2023-07-30T09:36:44;1.40;;;1.00;;
24389;SDS011;12510;56.468;-3.004;2023-07-30T09:39:17;0.68;;;0.68;;
24389;SDS011;12510;56.468;-3.004;2023-07-30T09:41:49;1.30;;;0.90;;
24389;SDS011;12510;56.468;-3.004;2023-07-30T09:44:17;1.80;;;0.90;;
24389;SDS011;12510;56.468;-3.004;2023-07-30T09:46:46;1.27;;;0.90;;
24389;SDS011;12510;56.468;-3.004;2023-07-30T09:49:15;1.60;;;0.63;;
24389;SDS011;12510;56.468;-3.004;2023-07-30T09:51:42;1.50;;;1.17;;
24389;SDS011;12510;56.468;-3.004;2023-07-30T09:54:11;1.42;;;0.85;;
24389;SDS011;12510;56.468;-3.004;2023-07-30T09:59:05;2.17;;;0.55;;
24389;SDS011;12510;56.468;-3.004;2023-07-30T10:01:44;1.05;;;0.63;;
24389;SDS011;12510;56.468;-3.004;2023-07-30T10:04:15;1.13;;;0.68;;
24389;SDS011;12510;56.468;-3.004;2023-07-30T10:06:52;1.98;;;0.60;;
24389;SDS011;12510;56.468;-3.004;2023-07-30T10:09:19;9.43;;;0.88;;
24389;SDS011;12510;56.468;-3.004;2023-07-30T10:11:47;0.65;;;0.30;;
24389;SDS011;12510;56.468;-3.004;2023-07-30T10:14:16;0.80;;;0.50;;
24389;SDS011;12510;56.468;-3.004;2023-07-30T10:16:52;0.30;;;0.28;;
24389;SDS011;12510;56.468;-3.004;2023-07-30T10:19:24;0.85;;;0.30;;
24389;SDS011;12510;56.468;-3.004;2023-07-30T10:21:53;0.30;;;0.20;;
24389;SDS011;12510;56.468;-3.004;2023-07-30T10:24:25;0.35;;;0.30;;
24389;SDS011;12510;56.468;-3.004;2023-07-30T10:26:52;0.98;;;0.52;;
24389;SDS011;12510;56.468;-3.004;2023-07-30T10:29:19;1.75;;;0.40;;
24389;SDS011;12510;56.468;-3.004;2023-07-30T10:34:21;2.50;;;0.47;;
24389;SDS011;12510;56.468;-3.004;2023-07-30T10:36:52;1.92;;;0.30;;
24389;SDS011;12510;56.468;-3.004;2023-07-30T10:39:22;1.60;;;0.40;;
24389;SDS011;12510;56.468;-3.004;2023-07-30T10:41:54;0.32;;;0.30;;
24389;SDS011;12510;56.468;-3.004;2023-07-30T10:44:23;0.65;;;0.40;;
24389;SDS011;12510;56.468;-3.004;2023-07-30T10:47:00;1.30;;;0.63;;
24389;SDS011;12510;56.468;-3.004;2023-07-30T10:49:27;0.75;;;0.40;;
24389;SDS011;12510;56.468;-3.004;2023-07-30T10:51:56;1.30;;;0.47;;
24389;SDS011;12510;56.468;-3.004;2023-07-30T10:54:23;0.60;;;0.40;;
24389;SDS011;12510;56.468;-3.004;2023-07-30T10:56:50;0.80;;;0.32;;
24389;SDS011;12510;56.468;-3.004;2023-07-30T10:59:17;9.27;;;0.98;;
24389;SDS011;12510;56.468;-3.004;2023-07-30T11:01:45;0.52;;;0.30;;
24389;SDS011;12510;56.468;-3.004;2023-07-30T11:06:44;1.70;;;0.50;;
24389;SDS011;12510;56.468;-3.004;2023-07-30T11:11:49;0.47;;;0.45;;
24389;SDS011;12510;56.468;-3.004;2023-07-30T11:14:17;0.25;;;0.20;;
24389;SDS011;12510;56.468;-3.004;2023-07-30T11:16:51;1.08;;;0.40;;
24389;SDS011;12510;56.468;-3.004;2023-07-30T11:19:19;0.55;;;0.40;;
24389;SDS011;12510;56.468;-3.004;2023-07-30T11:21:49;1.02;;;0.10;;
24389;SDS011;12510;56.468;-3.004;2023-07-30T11:24:19;0.60;;;0.35;;
24389;SDS011;12510;56.468;-3.004;2023-07-30T11:26:56;1.20;;;0.30;;
24389;SDS011;12510;56.468;-3.004;2023-07-30T11:29:24;0.50;;;0.38;;
24389;SDS011;12510;56.468;-3.004;2023-07-30T11:31:50;1.05;;;0.47;;
24389;SDS011;12510;56.468;-3.004;2023-07-30T11:34:17;0.20;;;0.20;;
24389;SDS011;12510;56.468;-3.004;2023-07-30T11:36:44;0.30;;;0.30;;
24389;SDS011;12510;56.468;-3.004;2023-07-30T11:39:11;5.35;;;0.50;;
24389;SDS011;12510;56.468;-3.004;2023-07-30T11:41:38;0.55;;;0.40;;
24389;SDS011;12510;56.468;-3.004;2023-07-30T11:44:05;0.63;;;0.35;;
24389;SDS011;12510;56.468;-3.004;2023-07-30T11:46:31;0.38;;;0.20;;
24389;SDS011;12510;56.468;-3.004;2023-07-30T11:49:20;1.27;;;0.95;;
24389;SDS011;12510;56.468;-3.004;2023-07-30T11:51:47;0.17;;;0.17;;
24389;SDS011;12510;56.468;-3.004;2023-07-30T11:54:20;0.30;;;0.30;;
24389;SDS011;12510;56.468;-3.004;2023-07-30T11:56:54;0.20;;;0.20;;
24389;SDS011;12510;56.468;-3.004;2023-07-30T11:59:22;0.60;;;0.40;;
24389;SDS011;12510;56.468;-3.004;2023-07-30T12:01:48;0.22;;;0.13;;
24389;SDS011;12510;56.468;-3.004;2023-07-30T12:04:15;0.28;;;0.20;;
24389;SDS011;12510;56.468;-3.004;2023-07-30T12:06:48;0.30;;;0.30;;
24389;SDS011;12510;56.468;-3.004;2023-07-30T12:09:17;0.15;;;0.15;;
24389;SDS011;12510;56.468;-3.004;2023-07-30T12:11:49;0.20;;;0.20;;
24389;SDS011;12510;56.468;-3.004;2023-07-30T12:14:20;0.10;;;0.10;;
24389;SDS011;12510;56.468;-3.004;2023-07-30T12:16:51;0.98;;;0.40;;
24389;SDS011;12510;56.468;-3.004;2023-07-30T12:19:17;0.38;;;0.17;;
24389;SDS011;12510;56.468;-3.004;2023-07-30T12:21:44;0.20;;;0.20;;
24389;SDS011;12510;56.468;-3.004;2023-07-30T12:24:11;4.38;;;0.73;;
24389;SDS011;12510;56.468;-3.004;2023-07-30T12:26:37;1.88;;;0.35;;
24389;SDS011;12510;56.468;-3.004;2023-07-30T12:29:03;0.52;;;0.30;;
24389;SDS011;12510;56.468;-3.004;2023-07-30T12:31:30;0.30;;;0.20;;
24389;SDS011;12510;56.468;-3.004;2023-07-30T12:33:56;0.15;;;0.15;;
24389;SDS011;12510;56.468;-3.004;2023-07-30T12:36:23;0.60;;;0.20;;
24389;SDS011;12510;56.468;-3.004;2023-07-30T12:38:49;0.30;;;0.28;;
24389;SDS011;12510;56.468;-3.004;2023-07-30T12:43:54;0.38;;;0.30;;
24389;SDS011;12510;56.468;-3.004;2023-07-30T12:46:23;0.20;;;0.13;;
24389;SDS011;12510;56.468;-3.004;2023-07-30T12:48:50;0.77;;;0.35;;
24389;SDS011;12510;56.468;-3.004;2023-07-30T12:51:17;0.32;;;0.32;;
24389;SDS011;12510;56.468;-3.004;2023-07-30T12:53:44;0.20;;;0.17;;
24389;SDS011;12510;56.468;-3.004;2023-07-30T12:56:10;0.52;;;0.20;;
24389;SDS011;12510;56.468;-3.004;2023-07-30T12:58:38;0.40;;;0.30;;
24389;SDS011;12510;56.468;-3.004;2023-07-30T13:01:05;0.30;;;0.30;;
24389;SDS011;12510;56.468;-3.004;2023-07-30T13:03:32;0.40;;;0.30;;
24389;SDS011;12510;56.468;-3.004;2023-07-30T13:05:58;1.60;;;0.32;;
24389;SDS011;12510;56.468;-3.004;2023-07-30T13:08:25;0.68;;;0.47;;
24389;SDS011;12510;56.468;-3.004;2023-07-30T13:10:51;0.40;;;0.28;;
24389;SDS011;12510;56.468;-3.004;2023-07-30T13:13:18;1.15;;;0.50;;
24389;SDS011;12510;56.468;-3.004;2023-07-30T13:15:44;0.50;;;0.35;;
24389;SDS011;12510;56.468;-3.004;2023-07-30T13:18:10;1.42;;;0.30;;
24389;SDS011;12510;56.468;-3.004;2023-07-30T13:20:37;1.15;;;0.60;;
24389;SDS011;12510;56.468;-3.004;2023-07-30T13:23:03;2.08;;;0.50;;
24389;SDS011;12510;56.468;-3.004;2023-07-30T13:25:30;1.13;;;0.32;;
24389;SDS011;12510;56.468;-3.004;2023-07-30T13:27:56;1.65;;;0.30;;
24389;SDS011;12510;56.468;-3.004;2023-07-30T13:30:22;0.68;;;0.40;;
24389;SDS011;12510;56.468;-3.004;2023-07-30T13:32:49;1.23;;;0.38;;
24389;SDS011;12510;56.468;-3.004;2023-07-30T13:35:15;0.40;;;0.25;;
24389;SDS011;12510;56.468;-3.004;2023-07-30T13:37:42;0.57;;;0.35;;
24389;SDS011;12510;56.468;-3.004;2023-07-30T13:40:09;0.55;;;0.55;;
24389;SDS011;12510;56.468;-3.004;2023-07-30T13:42:36;1.02;;;0.63;;
24389;SDS011;12510;56.468;-3.004;2023-07-30T13:45:02;0.73;;;0.43;;
24389;SDS011;12510;56.468;-3.004;2023-07-30T13:47:30;0.77;;;0.40;;
24389;SDS011;12510;56.468;-3.004;2023-07-30T13:49:56;1.27;;;0.30;;
24389;SDS011;12510;56.468;-3.004;2023-07-30T13:52:23;0.73;;;0.38;;
24389;SDS011;12510;56.468;-3.004;2023-07-30T13:54:49;0.60;;;0.40;;
24389;SDS011;12510;56.468;-3.004;2023-07-30T13:57:22;1.10;;;0.50;;
24389;SDS011;12510;56.468;-3.004;2023-07-30T13:59:50;1.35;;;0.50;;
24389;SDS011;12510;56.468;-3.004;2023-07-30T14:02:17;1.27;;;0.60;;
24389;SDS011;12510;56.468;-3.004;2023-07-30T14:04:43;1.25;;;0.40;;
24389;SDS011;12510;56.468;-3.004;2023-07-30T14:07:10;1.33;;;0.70;;
24389;SDS011;12510;56.468;-3.004;2023-07-30T14:09:36;0.95;;;0.30;;
24389;SDS011;12510;56.468;-3.004;2023-07-30T14:12:03;0.50;;;0.30;;
24389;SDS011;12510;56.468;-3.004;2023-07-30T14:14:30;1.15;;;0.77;;
24389;SDS011;12510;56.468;-3.004;2023-07-30T14:16:57;1.40;;;1.30;;
24389;SDS011;12510;56.468;-3.004;2023-07-30T14:19:23;0.98;;;0.40;;
24389;SDS011;12510;56.468;-3.004;2023-07-30T14:21:50;0.73;;;0.30;;
24389;SDS011;12510;56.468;-3.004;2023-07-30T14:24:16;1.17;;;0.60;;
24389;SDS011;12510;56.468;-3.004;2023-07-30T14:26:42;1.23;;;0.22;;
24389;SDS011;12510;56.468;-3.004;2023-07-30T14:29:09;1.27;;;0.43;;
24389;SDS011;12510;56.468;-3.004;2023-07-30T14:31:35;1.90;;;0.40;;
24389;SDS011;12510;56.468;-3.004;2023-07-30T14:34:02;1.60;;;0.38;;
24389;SDS011;12510;56.468;-3.004;2023-07-30T14:36:28;0.98;;;0.40;;